Kezdőlap
METAR-TAF:

METAR-TAF

Repülőterek :

Curaçao, Holland Antillák

földrajzi szélesség: 12-12N, földrajzi hosszúság: 068-58W, magasság: 9 m

Jelenlegi meteorológiai megfigyelések

A jelentés 21 perccel ezelõtt készült, 16:00 UTC
Keleti szél 13 kt
Hőmérséklet 28°C
Páratartalom 74%
Légköri nyomás 1013 hPa
Látótávolság 10 km, vagy több
Szórványos felhőzet 2400 lábon
Záporok a közelben

METAR: TNCC 221600Z 08013KT 9999 VCSH SCT024 28/23 Q1013 NOSIG

Idő: 12:21 (16:21 UTC)

Előrejelzés

A jelentés 6 órával és 21 perccel ezelõtt készült, 10:00 UTC
Az előrejelzés 22-én 12 óra UTC és 23-én 12 óra UTC között érvényes
Keleti szél 14 kt
Látótávolság 10 km, vagy több
Szórványos felhőzet 1600 lábon
22-én 12 óra UTC és 22-én 18 óra UTC között ideiglenes
Keleti szél 18 kt széllökések: 30 kt
Látótávolság: 6000 m
Szakadozott felhőzet 1400 lábon
záporok

TAF: TNCC 221000Z 2212/2312 09014KT 9999 SCT016 TEMPO 2212/2218 08018G30KT 6000 SHRA BKN014

Meteorológiai megfigyelések és előrejelzések több, mint 4000 repülőtéren (METAR és TAF jelentéseket).

A térképen piros és sárga pontok jelzik az elérhető meteorológiai állomásokat.

Mozgassa az egeret a pont fölött, hogy megjelenjen az állomás neve.

Azután kattintson az időjárási megfigyelések és előrejelzések megtekintéséhez.

A térkép megváltoztatása: kattintson a fekete keresztel jelölt zöld gombra ráközelítéshez, a vonallal jelölt zöld gombra távolításhoz, vagy a zöld nyilakra a szomszédos térképek eléréséhez.


METAR-TAF: